createdAt,value
2022-11-26T00:10:35.923Z,4.70
2022-11-26T00:25:48.172Z,5.10
2022-11-26T00:40:52.861Z,5.20
2022-11-26T00:55:57.391Z,6.33
2022-11-26T01:11:03.207Z,6.10
2022-11-26T01:26:16.522Z,5.13
2022-11-26T01:41:26.106Z,4.77
2022-11-26T01:56:39.908Z,5.57
2022-11-26T02:11:44.655Z,5.00
2022-11-26T02:27:02.128Z,5.80
2022-11-26T02:42:23.373Z,5.80
2022-11-26T02:57:30.138Z,6.53
2022-11-26T03:12:34.564Z,6.00
2022-11-26T03:27:38.906Z,7.00
2022-11-26T03:42:43.927Z,7.57
2022-11-26T03:57:48.704Z,6.83
2022-11-26T04:12:53.207Z,7.30
2022-11-26T04:27:57.496Z,7.10
2022-11-26T04:43:01.884Z,8.37
2022-11-26T04:58:06.033Z,7.93
2022-11-26T05:13:10.328Z,8.10
2022-11-26T05:28:15.037Z,7.03
2022-11-26T05:43:19.324Z,8.10
2022-11-26T05:58:23.710Z,7.87
2022-11-26T06:13:28.088Z,7.47
2022-11-26T06:28:32.347Z,9.83
2022-11-26T06:43:36.712Z,11.33
2022-11-26T06:58:41.213Z,9.50
2022-11-26T07:13:45.464Z,8.63
2022-11-26T07:28:50.090Z,10.17
2022-11-26T07:43:54.635Z,8.77
2022-11-26T07:58:59.529Z,8.70
2022-11-26T08:14:05.503Z,9.20
2022-11-26T08:29:09.782Z,9.43
2022-11-26T08:44:13.944Z,8.07
2022-11-26T08:59:20.604Z,8.20
2022-11-26T09:14:26.693Z,8.63
2022-11-26T09:29:30.967Z,10.80
2022-11-26T09:44:51.254Z,11.27
2022-11-26T09:59:56.721Z,10.80
2022-11-26T10:15:09.931Z,11.10
2022-11-26T10:30:25.462Z,12.30
2022-11-26T10:45:40.160Z,11.80
2022-11-26T11:00:50.133Z,10.40
2022-11-26T11:16:03.620Z,10.27
2022-11-26T11:31:12.776Z,13.87
2022-11-26T11:46:28.092Z,11.27
2022-11-26T12:01:51.097Z,8.50
2022-11-26T12:16:58.464Z,9.00
2022-11-26T12:32:12.860Z,8.10
2022-11-26T12:47:35.273Z,8.63
2022-11-26T13:02:43.097Z,7.67
2022-11-26T13:17:50.741Z,9.17
2022-11-26T13:33:07.930Z,7.87
2022-11-26T13:48:21.464Z,8.90
2022-11-26T14:03:46.298Z,11.77
2022-11-26T14:18:51.286Z,11.87
2022-11-26T14:33:58.880Z,13.60
2022-11-26T14:49:05.050Z,10.97
2022-11-26T15:04:09.222Z,10.20
2022-11-26T15:19:15.878Z,9.27
2022-11-26T15:34:20.330Z,14.33
2022-11-26T15:49:27.775Z,12.00
2022-11-26T16:04:34.525Z,14.30
2022-11-26T16:19:43.014Z,14.90
2022-11-26T16:34:47.467Z,12.77
2022-11-26T16:49:52.388Z,19.53
2022-11-26T17:04:56.890Z,21.50
2022-11-26T17:20:01.234Z,18.47
2022-11-26T17:35:06.115Z,15.20
2022-11-26T17:50:17.694Z,14.37
2022-11-26T18:05:22.429Z,16.83
2022-11-26T18:20:28.181Z,17.33
2022-11-26T18:35:33.008Z,16.40
2022-11-26T18:50:38.857Z,18.80
2022-11-26T19:05:46.621Z,16.93
2022-11-26T19:20:51.696Z,17.07
2022-11-26T19:35:56.445Z,16.93
2022-11-26T19:51:01.260Z,15.63
2022-11-26T20:06:06.889Z,17.03
2022-11-26T20:21:13.730Z,17.83
2022-11-26T20:36:21.277Z,16.80
2022-11-26T20:51:25.717Z,19.10
2022-11-26T21:06:37.952Z,18.13
2022-11-26T21:21:42.718Z,19.13
2022-11-26T21:36:46.823Z,18.20
2022-11-26T21:51:50.944Z,17.40
2022-11-26T22:06:55.147Z,14.53
2022-11-26T22:22:00.646Z,16.50
2022-11-26T22:37:05.001Z,17.57
2022-11-26T22:52:09.746Z,20.90
2022-11-26T23:07:14.038Z,22.30
2022-11-26T23:22:18.246Z,21.00
2022-11-26T23:37:22.520Z,16.00
2022-11-26T23:52:27.887Z,17.37
